Pagina principale
METAR-TAF:

METAR-TAF

Aeroporti :

Schaffen

Diest, Belgio

latitudine: 51-00N, longitudine: 005-04E, altezza: 30 m

Osservazione

Il bollettino è stato emesso 49 minuti fa, alle 17:25 UTC
Vento 5 kt da sud-est
Temperature 3°C
Umidità 93%
Pressione 1006 hPa
Visibilità: 7000 m

METAR: EBDT 211725Z AUTO 14005KT 7000 SCT100/// BKN220/// 03/02 Q1006 WHT

Ora: 19:14 (18:14 UTC)


TAF: mancante

Osservazioni e previsioni meteorologiche di più di 4000 aeroporti (messaggi METAR e TAF).

Le stazioni disponibili sono rappresentate dai dischi gialli e rossi sulla carta.

Puntare il mouse per vedere il nome della stazione.

Clicca sopra per visualizzare le osservazioni e previsioni meteorologiche.

Per cambiare la mappa : fare clic sui pulsanti verdi con una croce nera per ingrandire, il pulsante verde con un trattino per diminuire, o sulla freccia verde per le mappe adiacenti.


METAR-TAF: